Time;durP1;ratioP1;P1;durP2;ratioP2;P2;SDS_P1;SDS_P2;PMS_P1;PMS_P2;Temp;Humidity;BMP_temperature;BMP_pressure;BME280_temperature;BME280_humidity;BME280_pressure;Samples;Min_cycle;Max_cycle;Signal;HPM_P1;HPM_P2
2023/09/27 00:02:13;;;;;;;;;;;14.20;86.00;;;;;;5038750;28;20039;-70
2023/09/27 00:04:45;;;;;;;;;;;14.20;85.90;;;;;;5038805;28;20049;-71
2023/09/27 00:07:19;;;;;;;;;;;14.20;85.90;;;;;;5037178;28;19936;-71
2023/09/27 00:09:52;;;;;;;;;;;14.20;85.90;;;;;;5039167;28;19943;-71
2023/09/27 00:12:20;;;;;;;;;;;14.10;86.00;;;;;;5043218;28;19932;-71
2023/09/27 00:14:54;;;;;;;;;;;14.10;86.00;;;;;;5041825;28;19928;-70
2023/09/27 00:17:28;;;;;;;;;;;14.10;86.00;;;;;;5042080;28;19953;-71
2023/09/27 00:20:01;;;;;;;;;;;14.10;85.90;;;;;;5041169;28;19925;-71
2023/09/27 00:22:33;;;;;;;;;;;14.10;85.80;;;;;;5043468;28;19939;-69
2023/09/27 00:25:08;;;;;;;;;;;14.10;85.80;;;;;;5039205;28;20072;-71
2023/09/27 00:27:36;;;;;;;;;;;14.00;85.70;;;;;;5038966;28;19935;-70
2023/09/27 00:30:13;;;;;;;;;;;14.00;85.80;;;;;;5042843;28;19952;-71
2023/09/27 00:32:48;;;;;;;;;;;13.90;85.80;;;;;;5041924;28;19940;-71
2023/09/27 00:35:22;;;;;;;;;;;13.90;85.90;;;;;;5047896;28;19935;-68
2023/09/27 00:37:56;;;;;;;;;;;13.90;85.90;;;;;;5043358;28;20036;-69
2023/09/27 00:40:31;;;;;;;;;;;14.00;85.90;;;;;;5055659;28;19925;-69
2023/09/27 00:43:05;;;;;;;;;;;14.10;86.00;;;;;;5042113;28;19956;-69
2023/09/27 00:45:39;;;;;;;;;;;14.20;86.00;;;;;;5045259;28;19925;-68
2023/09/27 00:48:13;;;;;;;;;;;14.30;85.80;;;;;;5041232;28;19990;-69
2023/09/27 00:50:45;;;;;;;;;;;14.30;85.70;;;;;;5057705;22;19932;-69
2023/09/27 00:53:45;;;;;;;;;;;14.30;85.80;;;;;;5075931;28;19931;-69
2023/09/27 00:56:18;;;;;;;;;;;14.20;86.00;;;;;;5075070;28;19966;-69
2023/09/27 00:58:53;;;;;;;;;;;14.30;86.10;;;;;;5073114;28;19931;-69
2023/09/27 01:01:26;;;;;;;;;;;14.30;86.30;;;;;;5336881;22;19958;-73
2023/09/27 01:04:01;;;;;;;;;;;14.30;86.50;;;;;;5120386;27;20342;-70
2023/09/27 01:06:34;;;;;;;;;;;14.30;86.60;;;;;;5113232;27;19934;-70
2023/09/27 01:09:08;;;;;;;;;;;14.40;86.40;;;;;;5123406;27;19927;-68
2023/09/27 01:11:41;;;;;;;;;;;14.30;86.70;;;;;;5123093;27;19931;-69
2023/09/27 01:14:15;;;;;;;;;;;14.30;86.70;;;;;;5123851;27;19938;-69
2023/09/27 01:16:49;;;;;;;;;;;14.30;86.60;;;;;;5121951;27;19931;-68
2023/09/27 01:19:22;;;;;;;;;;;14.40;86.60;;;;;;5126969;27;19928;-69
2023/09/27 01:21:56;;;;;;;;;;;14.40;86.40;;;;;;5112630;27;19924;-68
2023/09/27 01:24:33;;;;;;;;;;;14.40;86.20;;;;;;5126980;27;19969;-70
2023/09/27 01:27:10;;;;;;;;;;;14.40;86.20;;;;;;5122282;27;20398;-68
2023/09/27 01:29:44;;;;;;;;;;;14.40;86.20;;;;;;5127385;27;20022;-71
2023/09/27 01:32:18;;;;;;;;;;;14.40;86.10;;;;;;5124504;27;20016;-69
2023/09/27 01:34:52;;;;;;;;;;;14.30;86.30;;;;;;5137905;27;20374;-70
2023/09/27 01:37:25;;;;;;;;;;;14.30;86.30;;;;;;5129339;27;19942;-68
2023/09/27 01:39:59;;;;;;;;;;;14.30;86.10;;;;;;5121959;27;19923;-71
2023/09/27 01:42:33;;;;;;;;;;;14.20;85.70;;;;;;5124535;27;20035;-69
2023/09/27 01:45:06;;;;;;;;;;;14.10;85.60;;;;;;5119113;27;19924;-71
2023/09/27 01:47:33;;;;;;;;;;;14.00;85.60;;;;;;5123662;27;20027;-71
2023/09/27 01:50:08;;;;;;;;;;;14.00;85.60;;;;;;5112783;27;20000;-70
2023/09/27 01:52:41;;;;;;;;;;;13.90;85.50;;;;;;5114199;27;19934;-69
2023/09/27 01:55:15;;;;;;;;;;;13.80;85.70;;;;;;5108684;28;19938;-70
2023/09/27 01:57:49;;;;;;;;;;;13.80;85.80;;;;;;5123046;27;19969;-70
2023/09/27 02:00:22;;;;;;;;;;;13.70;85.80;;;;;;5124290;27;19932;-71
2023/09/27 02:02:56;;;;;;;;;;;13.70;85.60;;;;;;5111824;27;20378;-69
2023/09/27 02:05:30;;;;;;;;;;;13.70;85.80;;;;;;5111312;27;19923;-70
2023/09/27 02:08:04;;;;;;;;;;;13.60;85.90;;;;;;5092163;27;19924;-70
2023/09/27 02:10:38;;;;;;;;;;;13.70;85.70;;;;;;5103907;28;20369;-69
2023/09/27 02:13:12;;;;;;;;;;;13.70;85.70;;;;;;5089308;28;19928;-69
2023/09/27 02:15:45;;;;;;;;;;;13.70;86.30;;;;;;5099581;27;19928;-70
2023/09/27 02:18:18;;;;;;;;;;;13.80;86.00;;;;;;5090587;28;19932;-68
2023/09/27 02:20:51;;;;;;;;;;;13.90;85.90;;;;;;5104634;27;19928;-63
2023/09/27 02:23:32;;;;;;;;;;;13.80;85.60;;;;;;5098712;27;19939;-62
2023/09/27 02:26:06;;;;;;;;;;;13.80;85.60;;;;;;5089970;27;19950;-62
2023/09/27 02:28:40;;;;;;;;;;;13.70;85.80;;;;;;5090021;28;19926;-63
2023/09/27 02:31:10;;;;;;;;;;;13.70;85.90;;;;;;5089322;28;20015;-63
2023/09/27 02:33:44;;;;;;;;;;;13.70;86.00;;;;;;5089081;28;19934;-64
2023/09/27 02:36:17;;;;;;;;;;;13.70;86.30;;;;;;5088032;28;20015;-63
2023/09/27 02:38:50;;;;;;;;;;;13.70;86.50;;;;;;5089247;28;19924;-63
2023/09/27 02:41:24;;;;;;;;;;;13.70;86.40;;;;;;5090570;28;19935;-63
2023/09/27 02:43:58;;;;;;;;;;;13.70;86.30;;;;;;5087828;27;19924;-63
2023/09/27 02:46:31;;;;;;;;;;;13.70;86.30;;;;;;5088274;28;19935;-63
2023/09/27 02:49:04;;;;;;;;;;;13.70;86.30;;;;;;5087381;28;20375;-63
2023/09/27 02:51:39;;;;;;;;;;;13.70;86.20;;;;;;5089205;28;19924;-63
2023/09/27 02:54:14;;;;;;;;;;;13.70;86.10;;;;;;5083513;28;19941;-63
2023/09/27 02:56:48;;;;;;;;;;;13.70;86.10;;;;;;5088132;28;20377;-63
2023/09/27 02:59:15;;;;;;;;;;;13.70;86.00;;;;;;5087626;28;19924;-62
2023/09/27 03:01:49;;;;;;;;;;;13.70;85.80;;;;;;5088986;28;19924;-63
2023/09/27 03:04:22;;;;;;;;;;;13.60;85.90;;;;;;5087986;28;19933;-65
2023/09/27 03:06:55;;;;;;;;;;;13.60;85.90;;;;;;5094891;27;19931;-63
2023/09/27 03:09:28;;;;;;;;;;;13.60;85.90;;;;;;5108729;28;20309;-63
2023/09/27 03:12:03;;;;;;;;;;;13.60;85.90;;;;;;5108510;27;19923;-63
2023/09/27 03:14:36;;;;;;;;;;;13.60;85.90;;;;;;5109095;27;19931;-61
2023/09/27 03:17:10;;;;;;;;;;;13.60;86.00;;;;;;5106590;27;19930;-63
2023/09/27 03:19:47;;;;;;;;;;;13.60;86.00;;;;;;5124992;27;19942;-63
2023/09/27 03:22:21;;;;;;;;;;;13.60;86.00;;;;;;5096292;28;19934;-62
2023/09/27 03:24:56;;;;;;;;;;;13.60;86.10;;;;;;5094524;28;20550;-63
2023/09/27 03:27:30;;;;;;;;;;;13.60;86.00;;;;;;5104332;27;20040;-63
2023/09/27 03:30:05;;;;;;;;;;;13.60;86.00;;;;;;5089528;28;20016;-76
2023/09/27 03:32:40;;;;;;;;;;;13.60;86.00;;;;;;5103809;27;19931;-79
2023/09/27 03:35:14;;;;;;;;;;;13.60;86.00;;;;;;5090240;28;20023;-78
2023/09/27 03:37:48;;;;;;;;;;;13.60;86.20;;;;;;5110984;27;19928;-80
2023/09/27 03:40:21;;;;;;;;;;;13.60;86.50;;;;;;5098537;27;19971;-77
2023/09/27 03:42:55;;;;;;;;;;;13.60;86.30;;;;;;5089874;28;19943;-78
2023/09/27 03:45:30;;;;;;;;;;;13.60;86.30;;;;;;5089110;28;19924;-78
2023/09/27 03:48:06;;;;;;;;;;;13.60;86.30;;;;;;5088646;28;20023;-80
2023/09/27 03:50:40;;;;;;;;;;;13.60;86.50;;;;;;5089559;28;19928;-79
2023/09/27 03:53:14;;;;;;;;;;;13.60;86.50;;;;;;5090223;28;19938;-78
2023/09/27 03:55:48;;;;;;;;;;;13.60;86.40;;;;;;5089545;28;19953;-80
2023/09/27 03:58:23;;;;;;;;;;;13.60;86.40;;;;;;5089550;28;19928;-78
2023/09/27 04:00:56;;;;;;;;;;;13.50;86.40;;;;;;5085212;28;19955;-78
2023/09/27 04:03:29;;;;;;;;;;;13.50;86.30;;;;;;5087181;28;19927;-79
2023/09/27 04:06:02;;;;;;;;;;;13.50;86.40;;;;;;5088980;28;19924;-79
2023/09/27 04:08:36;;;;;;;;;;;13.50;86.50;;;;;;5087914;28;20469;-79
2023/09/27 04:11:10;;;;;;;;;;;13.50;86.60;;;;;;5089669;28;20032;-78
2023/09/27 04:13:45;;;;;;;;;;;13.50;86.70;;;;;;5090366;28;19924;-78
2023/09/27 04:16:18;;;;;;;;;;;13.50;86.80;;;;;;5089460;28;19932;-80
2023/09/27 04:18:51;;;;;;;;;;;13.50;87.00;;;;;;5089868;28;19931;-79
2023/09/27 04:21:24;;;;;;;;;;;13.60;87.00;;;;;;5093602;28;19927;-79
2023/09/27 04:23:57;;;;;;;;;;;13.50;87.10;;;;;;5092729;27;20823;-79
2023/09/27 04:26:24;;;;;;;;;;;13.50;87.10;;;;;;5088078;28;19928;-79
2023/09/27 04:29:00;;;;;;;;;;;13.60;87.10;;;;;;5088871;28;19928;-78
2023/09/27 04:31:34;;;;;;;;;;;13.50;87.20;;;;;;5089373;28;19930;-78
2023/09/27 04:34:07;;;;;;;;;;;13.60;87.20;;;;;;5089010;28;19928;-79
2023/09/27 04:36:40;;;;;;;;;;;13.60;87.10;;;;;;5089298;28;20019;-78
2023/09/27 04:39:16;;;;;;;;;;;13.60;87.20;;;;;;5089052;28;19932;-78
2023/09/27 04:41:50;;;;;;;;;;;13.60;87.10;;;;;;5088695;28;19932;-70
2023/09/27 04:44:31;;;;;;;;;;;13.60;87.10;;;;;;5107700;27;19928;-69
2023/09/27 04:47:04;;;;;;;;;;;13.60;87.10;;;;;;5096070;27;19951;-69
2023/09/27 04:49:37;;;;;;;;;;;13.60;87.10;;;;;;5102382;27;19927;-68
2023/09/27 04:52:10;;;;;;;;;;;13.60;87.10;;;;;;5108559;27;19934;-70
2023/09/27 04:54:43;;;;;;;;;;;13.60;87.30;;;;;;5093229;27;19928;-68
2023/09/27 04:57:17;;;;;;;;;;;13.50;87.20;;;;;;5087695;28;19931;-68
2023/09/27 04:59:52;;;;;;;;;;;13.50;87.30;;;;;;5089107;28;19932;-68
2023/09/27 05:02:27;;;;;;;;;;;13.40;87.20;;;;;;5086472;28;19928;-68
2023/09/27 05:05:00;;;;;;;;;;;13.40;87.20;;;;;;5106149;27;19931;-69
2023/09/27 05:07:33;;;;;;;;;;;13.30;87.30;;;;;;5098772;28;20013;-69
2023/09/27 05:10:07;;;;;;;;;;;13.30;87.10;;;;;;5109104;27;20378;-69
2023/09/27 05:12:41;;;;;;;;;;;13.20;87.10;;;;;;5098457;27;20009;-69
2023/09/27 05:15:16;;;;;;;;;;;13.20;87.00;;;;;;5086659;27;19931;-70
2023/09/27 05:17:49;;;;;;;;;;;13.20;87.00;;;;;;5088006;28;19973;-69
2023/09/27 05:20:22;;;;;;;;;;;13.20;87.10;;;;;;5111738;27;19928;-69
2023/09/27 05:22:56;;;;;;;;;;;13.20;87.00;;;;;;5112091;27;19935;-69
2023/09/27 05:25:29;;;;;;;;;;;13.20;87.10;;;;;;5111603;27;19928;-68
2023/09/27 05:28:02;;;;;;;;;;;13.20;87.00;;;;;;5111629;27;20377;-68
2023/09/27 05:30:36;;;;;;;;;;;13.30;86.70;;;;;;5112020;27;20393;-68
2023/09/27 05:33:10;;;;;;;;;;;13.30;86.60;;;;;;5107467;27;19927;-68
2023/09/27 05:35:43;;;;;;;;;;;13.30;86.50;;;;;;5097631;27;19928;-68
2023/09/27 05:38:16;;;;;;;;;;;13.30;86.40;;;;;;5091926;28;20019;-68
2023/09/27 05:40:50;;;;;;;;;;;13.30;86.60;;;;;;5081038;28;20461;-68
2023/09/27 05:43:26;;;;;;;;;;;13.30;86.50;;;;;;5091311;27;19928;-69
2023/09/27 05:46:00;;;;;;;;;;;13.30;86.60;;;;;;5089760;28;19924;-69
2023/09/27 05:48:34;;;;;;;;;;;13.40;86.30;;;;;;5091993;28;19952;-69
2023/09/27 05:51:08;;;;;;;;;;;13.40;86.40;;;;;;5088763;28;19931;-69
2023/09/27 05:53:41;;;;;;;;;;;13.30;86.70;;;;;;5091647;28;19928;-68
2023/09/27 05:56:14;;;;;;;;;;;13.30;86.90;;;;;;5089917;28;20325;-69
2023/09/27 05:58:47;;;;;;;;;;;13.30;87.00;;;;;;5092022;28;19984;-68
2023/09/27 06:01:21;;;;;;;;;;;13.30;86.90;;;;;;5111058;27;19923;-69
2023/09/27 06:03:54;;;;;;;;;;;13.30;87.10;;;;;;5099715;27;20434;-69
2023/09/27 06:06:29;;;;;;;;;;;13.40;86.90;;;;;;5110906;27;19928;-70
2023/09/27 06:09:02;;;;;;;;;;;13.40;86.80;;;;;;5110680;27;19924;-71
2023/09/27 06:11:36;;;;;;;;;;;13.50;86.70;;;;;;5110022;27;20022;-68
2023/09/27 06:14:10;;;;;;;;;;;13.50;86.80;;;;;;5109952;27;19931;-68
2023/09/27 06:16:45;;;;;;;;;;;13.50;86.70;;;;;;5107674;28;19927;-69
2023/09/27 06:19:18;;;;;;;;;;;13.50;86.70;;;;;;5099116;27;19927;-69
2023/09/27 06:21:51;;;;;;;;;;;13.60;86.70;;;;;;5089275;28;20280;-69
2023/09/27 06:24:24;;;;;;;;;;;13.60;86.60;;;;;;5099667;27;20458;-68
2023/09/27 06:26:57;;;;;;;;;;;13.60;86.70;;;;;;5089256;28;19935;-70
2023/09/27 06:29:23;;;;;;;;;;;13.60;86.80;;;;;;5091025;28;19928;-68
2023/09/27 06:31:58;;;;;;;;;;;13.60;86.80;;;;;;5098096;27;20455;-68
2023/09/27 06:34:32;;;;;;;;;;;13.60;86.70;;;;;;5105468;27;19924;-68
2023/09/27 06:37:07;;;;;;;;;;;13.70;86.70;;;;;;5090238;27;19924;-68
2023/09/27 06:39:41;;;;;;;;;;;13.70;86.70;;;;;;5090517;27;19924;-70
2023/09/27 06:42:15;;;;;;;;;;;13.60;86.60;;;;;;5089541;28;19951;-69
2023/09/27 06:44:48;;;;;;;;;;;13.60;86.50;;;;;;5090795;28;20392;-68
2023/09/27 06:47:23;;;;;;;;;;;13.60;86.70;;;;;;5104242;27;19928;-69
2023/09/27 06:49:56;;;;;;;;;;;13.70;86.70;;;;;;5089370;28;19928;-69
2023/09/27 06:52:29;;;;;;;;;;;13.70;86.50;;;;;;5090475;28;19990;-68
2023/09/27 06:55:04;;;;;;;;;;;13.70;86.40;;;;;;5087440;28;20317;-68
2023/09/27 06:57:37;;;;;;;;;;;13.70;86.70;;;;;;5101993;27;20006;-70
2023/09/27 07:00:13;;;;;;;;;;;13.80;86.60;;;;;;5110394;27;20385;-72
2023/09/27 07:02:47;;;;;;;;;;;13.80;86.40;;;;;;5102616;27;19928;-72
2023/09/27 07:05:22;;;;;;;;;;;13.80;86.60;;;;;;5101439;27;20000;-73
2023/09/27 07:07:56;;;;;;;;;;;13.80;87.00;;;;;;5100877;27;19932;-71
2023/09/27 07:10:29;;;;;;;;;;;13.90;86.40;;;;;;5089033;27;19932;-71
2023/09/27 07:13:02;;;;;;;;;;;14.00;86.30;;;;;;5089055;28;19932;-72
2023/09/27 07:15:35;;;;;;;;;;;13.90;86.50;;;;;;5090213;28;19936;-72
2023/09/27 07:18:09;;;;;;;;;;;13.90;86.50;;;;;;5090971;28;19928;-72
2023/09/27 07:20:43;;;;;;;;;;;13.90;86.50;;;;;;5109897;27;20294;-71
2023/09/27 07:23:16;;;;;;;;;;;14.00;86.30;;;;;;5097989;27;19978;-73
2023/09/27 07:25:49;;;;;;;;;;;14.00;86.30;;;;;;5089754;27;19959;-72
2023/09/27 07:28:23;;;;;;;;;;;14.10;86.10;;;;;;5096364;28;19928;-72
2023/09/27 07:30:49;;;;;;;;;;;14.20;86.30;;;;;;5105292;27;19927;-72
2023/09/27 07:33:25;;;;;;;;;;;14.30;86.20;;;;;;5101264;27;19934;-72
2023/09/27 07:35:58;;;;;;;;;;;14.50;85.70;;;;;;5091960;27;19935;-72
2023/09/27 07:38:32;;;;;;;;;;;14.60;85.60;;;;;;5090436;28;19932;-72
2023/09/27 07:41:05;;;;;;;;;;;14.70;85.60;;;;;;5087669;28;20927;-71
2023/09/27 07:43:38;;;;;;;;;;;14.70;85.80;;;;;;5088661;28;19981;-71
2023/09/27 07:46:12;;;;;;;;;;;14.70;85.70;;;;;;5090675;28;19932;-71
2023/09/27 07:48:46;;;;;;;;;;;14.70;85.10;;;;;;5110589;27;20358;-71
2023/09/27 07:51:22;;;;;;;;;;;14.70;85.70;;;;;;5108537;27;19932;-71
2023/09/27 07:53:56;;;;;;;;;;;14.80;86.00;;;;;;5109831;27;19927;-70
2023/09/27 07:56:36;;;;;;;;;;;14.90;86.30;;;;;;5093027;27;20003;-72
2023/09/27 07:59:10;;;;;;;;;;;14.90;86.30;;;;;;5087390;28;20035;-70
2023/09/27 08:01:44;;;;;;;;;;;15.10;86.40;;;;;;5086902;28;19924;-71
2023/09/27 08:04:19;;;;;;;;;;;15.20;85.70;;;;;;5108548;27;19938;-71
2023/09/27 08:06:53;;;;;;;;;;;15.30;86.10;;;;;;5108651;27;20378;-69
2023/09/27 08:09:26;;;;;;;;;;;15.40;85.70;;;;;;5105984;27;19928;-72
2023/09/27 08:11:59;;;;;;;;;;;15.50;85.80;;;;;;5107627;27;20382;-72
2023/09/27 08:14:32;;;;;;;;;;;15.60;86.40;;;;;;5109137;27;20021;-72
2023/09/27 08:17:06;;;;;;;;;;;15.80;86.00;;;;;;5088870;27;19951;-72
2023/09/27 08:19:41;;;;;;;;;;;16.00;85.80;;;;;;5084820;28;19967;-70
2023/09/27 08:22:15;;;;;;;;;;;16.10;85.50;;;;;;5086697;28;19924;-70
2023/09/27 08:24:48;;;;;;;;;;;16.30;85.50;;;;;;5088457;28;19973;-70
2023/09/27 08:27:21;;;;;;;;;;;16.40;85.60;;;;;;5095873;27;20338;-70
2023/09/27 08:29:54;;;;;;;;;;;16.60;85.00;;;;;;5088975;28;20298;-68
2023/09/27 08:32:28;;;;;;;;;;;16.70;84.40;;;;;;5088159;28;19928;-69
2023/09/27 08:35:04;;;;;;;;;;;16.80;85.30;;;;;;5086935;28;19932;-70
2023/09/27 08:37:38;;;;;;;;;;;16.90;85.10;;;;;;5087167;28;19932;-70
2023/09/27 08:40:13;;;;;;;;;;;17.10;85.40;;;;;;5087224;28;20058;-70
2023/09/27 08:42:50;;;;;;;;;;;17.20;84.70;;;;;;5089285;28;19932;-70
2023/09/27 08:45:24;;;;;;;;;;;17.50;84.10;;;;;;5108409;27;20377;-70
2023/09/27 08:47:58;;;;;;;;;;;17.60;83.60;;;;;;5108886;27;19963;-70
2023/09/27 08:50:33;;;;;;;;;;;17.80;83.70;;;;;;5107878;27;19924;-69
2023/09/27 08:53:06;;;;;;;;;;;18.00;83.50;;;;;;5108148;27;20397;-70
2023/09/27 08:55:43;;;;;;;;;;;18.10;84.00;;;;;;5111057;27;19928;-70
2023/09/27 08:58:18;;;;;;;;;;;18.30;83.50;;;;;;5112668;27;19934;-72
2023/09/27 09:00:51;;;;;;;;;;;18.60;83.10;;;;;;5110288;27;21092;-70
2023/09/27 09:03:24;;;;;;;;;;;18.60;83.30;;;;;;5092177;28;19928;-69
2023/09/27 09:05:59;;;;;;;;;;;18.60;83.40;;;;;;5093098;28;19939;-70
2023/09/27 09:08:39;;;;;;;;;;;18.70;83.50;;;;;;5092936;28;19932;-70
2023/09/27 09:11:13;;;;;;;;;;;18.90;82.90;;;;;;5092458;28;20302;-71
2023/09/27 09:13:57;;;;;;;;;;;19.10;81.80;;;;;;5092011;28;19969;-69
2023/09/27 09:16:39;;;;;;;;;;;19.20;81.90;;;;;;5111433;28;19931;-69
2023/09/27 09:19:19;;;;;;;;;;;19.40;81.20;;;;;;5111830;27;24714;-69
2023/09/27 09:22:00;;;;;;;;;;;19.50;81.30;;;;;;5111127;27;20297;-68
2023/09/27 09:24:34;;;;;;;;;;;19.60;80.70;;;;;;5112134;27;20015;-70
2023/09/27 09:27:08;;;;;;;;;;;19.80;80.90;;;;;;5110806;27;19976;-71
2023/09/27 09:29:45;;;;;;;;;;;20.00;80.70;;;;;;5111451;27;19966;-71
2023/09/27 09:32:18;;;;;;;;;;;20.10;80.30;;;;;;5090248;28;20027;-69
2023/09/27 09:34:53;;;;;;;;;;;20.20;79.00;;;;;;5099418;27;19976;-68
2023/09/27 09:37:28;;;;;;;;;;;20.30;78.10;;;;;;5104974;27;20401;-68
2023/09/27 09:40:14;;;;;;;;;;;20.40;76.50;;;;;;5092780;27;19963;-68
2023/09/27 09:42:49;;;;;;;;;;;20.50;77.70;;;;;;5104438;27;20402;-69
2023/09/27 09:45:23;;;;;;;;;;;20.60;77.20;;;;;;5112552;27;19923;-69
2023/09/27 09:47:57;;;;;;;;;;;20.70;77.50;;;;;;5094668;27;19955;-69
2023/09/27 09:50:30;;;;;;;;;;;20.90;77.30;;;;;;5112325;27;19935;-69
2023/09/27 09:53:05;;;;;;;;;;;21.00;76.60;;;;;;5102324;27;19928;-69
2023/09/27 09:55:40;;;;;;;;;;;21.00;77.10;;;;;;5090999;28;20022;-69
2023/09/27 09:58:17;;;;;;;;;;;21.00;76.20;;;;;;5090108;28;19947;-69
2023/09/27 10:00:51;;;;;;;;;;;20.80;76.70;;;;;;5085796;28;19924;-68
2023/09/27 10:03:26;;;;;;;;;;;20.80;76.60;;;;;;5102045;27;19943;-68
2023/09/27 10:06:01;;;;;;;;;;;20.90;75.10;;;;;;5101951;27;19962;-68
2023/09/27 10:08:39;;;;;;;;;;;21.00;75.70;;;;;;5112133;27;20316;-69
2023/09/27 10:11:13;;;;;;;;;;;21.10;74.70;;;;;;5111337;27;20328;-69
2023/09/27 10:13:47;;;;;;;;;;;21.10;74.80;;;;;;5110727;27;20311;-68
2023/09/27 10:16:23;;;;;;;;;;;21.30;75.00;;;;;;5109671;27;20298;-69
2023/09/27 10:18:56;;;;;;;;;;;21.40;73.80;;;;;;5110163;27;19924;-67
2023/09/27 10:21:29;;;;;;;;;;;21.40;74.10;;;;;;5110923;27;19927;-68
2023/09/27 10:24:07;;;;;;;;;;;21.50;73.80;;;;;;5110313;27;19938;-68
2023/09/27 10:26:40;;;;;;;;;;;21.60;74.40;;;;;;5111184;27;19931;-70
2023/09/27 10:29:17;;;;;;;;;;;21.60;72.90;;;;;;5111331;27;19939;-68
2023/09/27 10:32:20;;;;;;;;;;;21.70;72.80;;;;;;5110370;27;20046;-68
2023/09/27 10:34:53;;;;;;;;;;;21.70;72.30;;;;;;5102027;27;19928;-70
2023/09/27 10:37:52;;;;;;;;;;;21.80;72.10;;;;;;5090598;28;19928;-68
2023/09/27 10:40:26;;;;;;;;;;;21.80;70.70;;;;;;5098732;27;19924;-62
2023/09/27 10:43:00;;;;;;;;;;;21.90;71.20;;;;;;5085725;27;20439;-62
2023/09/27 10:45:27;;;;;;;;;;;22.10;71.50;;;;;;5088539;28;19932;-62
2023/09/27 10:48:14;;;;;;;;;;;22.10;70.90;;;;;;5088906;28;19928;-63
2023/09/27 10:50:54;;;;;;;;;;;22.10;71.20;;;;;;5089211;28;19936;-62
2023/09/27 10:53:28;;;;;;;;;;;22.30;70.90;;;;;;5110813;27;19959;-62
2023/09/27 10:56:03;;;;;;;;;;;22.30;70.80;;;;;;5110578;27;19927;-62
2023/09/27 10:58:42;;;;;;;;;;;22.40;70.40;;;;;;5109446;27;20042;-62
2023/09/27 11:01:26;;;;;;;;;;;22.40;70.50;;;;;;5110371;27;19927;-62
2023/09/27 11:04:01;;;;;;;;;;;22.50;70.20;;;;;;5091452;28;19924;-62
2023/09/27 11:06:34;;;;;;;;;;;22.40;69.20;;;;;;5087270;28;19934;-62
2023/09/27 11:09:07;;;;;;;;;;;22.40;69.50;;;;;;5098130;27;19928;-63
2023/09/27 11:11:44;;;;;;;;;;;22.60;69.40;;;;;;5088937;27;19928;-63
2023/09/27 11:14:28;;;;;;;;;;;22.60;68.90;;;;;;5087462;28;19924;-62
2023/09/27 11:17:17;;;;;;;;;;;22.60;69.50;;;;;;5107341;27;19935;-63
2023/09/27 11:19:50;;;;;;;;;;;22.60;69.20;;;;;;5110693;27;20337;-62
2023/09/27 11:22:26;;;;;;;;;;;22.60;69.20;;;;;;5093370;28;19931;-62
2023/09/27 11:24:59;;;;;;;;;;;22.50;68.90;;;;;;5091747;27;19957;-62
2023/09/27 11:27:34;;;;;;;;;;;22.40;69.20;;;;;;5096547;27;19966;-62
2023/09/27 11:30:08;;;;;;;;;;;22.40;69.60;;;;;;5091095;28;19932;-62
2023/09/27 11:32:49;;;;;;;;;;;22.40;69.10;;;;;;5087193;28;19928;-63
2023/09/27 11:35:24;;;;;;;;;;;22.50;69.00;;;;;;5088773;28;19924;-64
2023/09/27 11:38:07;;;;;;;;;;;22.50;68.00;;;;;;5105578;27;19923;-63
2023/09/27 11:40:42;;;;;;;;;;;22.50;68.30;;;;;;5101634;27;19924;-63
2023/09/27 11:43:17;;;;;;;;;;;22.60;68.30;;;;;;5088962;27;19953;-63
2023/09/27 11:45:50;;;;;;;;;;;22.60;68.00;;;;;;5090180;28;19939;-64
2023/09/27 11:48:31;;;;;;;;;;;22.60;67.30;;;;;;5090556;28;19924;-65
2023/09/27 11:51:05;;;;;;;;;;;22.50;67.50;;;;;;5088801;28;19977;-65
2023/09/27 11:53:38;;;;;;;;;;;22.50;68.20;;;;;;5085317;28;19925;-64
2023/09/27 11:56:11;;;;;;;;;;;22.50;67.70;;;;;;5090185;28;19947;-63
2023/09/27 11:58:45;;;;;;;;;;;22.50;67.40;;;;;;5109606;27;20007;-64
2023/09/27 12:01:19;;;;;;;;;;;22.60;67.80;;;;;;5099874;27;19935;-64
2023/09/27 12:03:53;;;;;;;;;;;22.60;67.20;;;;;;5085961;28;19955;-65
2023/09/27 12:06:28;;;;;;;;;;;22.60;67.70;;;;;;5089414;28;19931;-64
2023/09/27 12:09:05;;;;;;;;;;;22.60;67.60;;;;;;5084057;28;20005;-65
2023/09/27 12:11:38;;;;;;;;;;;22.60;68.40;;;;;;5102917;27;19923;-64
2023/09/27 12:14:12;;;;;;;;;;;22.50;67.90;;;;;;5090156;27;19973;-66
2023/09/27 12:16:46;;;;;;;;;;;22.50;67.70;;;;;;5099540;27;19928;-64
2023/09/27 12:19:19;;;;;;;;;;;22.50;67.50;;;;;;5088684;28;19928;-64
2023/09/27 12:21:53;;;;;;;;;;;22.50;67.80;;;;;;5088754;28;19977;-64
2023/09/27 12:24:20;;;;;;;;;;;22.50;67.80;;;;;;5089047;28;20362;-63
2023/09/27 12:26:53;;;;;;;;;;;22.50;68.00;;;;;;5086798;28;19956;-64
2023/09/27 12:29:27;;;;;;;;;;;22.60;67.90;;;;;;5083247;28;19924;-64
2023/09/27 12:32:01;;;;;;;;;;;22.50;68.10;;;;;;5085245;28;20447;-63
2023/09/27 12:34:34;;;;;;;;;;;22.50;68.50;;;;;;5087850;28;19943;-63
2023/09/27 12:37:07;;;;;;;;;;;22.50;68.50;;;;;;5082811;28;19944;-63
2023/09/27 12:39:40;;;;;;;;;;;22.50;68.00;;;;;;5088975;28;19939;-64
2023/09/27 12:42:13;;;;;;;;;;;22.50;68.00;;;;;;5088641;28;19963;-64
2023/09/27 12:44:49;;;;;;;;;;;22.40;67.70;;;;;;5104786;27;19924;-65
2023/09/27 12:47:22;;;;;;;;;;;22.40;68.00;;;;;;5108981;27;19928;-64
2023/09/27 12:49:56;;;;;;;;;;;22.40;68.50;;;;;;5092508;27;19928;-64
2023/09/27 12:52:31;;;;;;;;;;;22.40;68.10;;;;;;5087845;28;19928;-65
2023/09/27 12:54:57;;;;;;;;;;;22.40;67.10;;;;;;5088802;28;19924;-64
2023/09/27 12:57:31;;;;;;;;;;;22.40;67.50;;;;;;5088972;28;19932;-64
2023/09/27 13:00:08;;;;;;;;;;;22.40;67.20;;;;;;5106848;27;19928;-69
2023/09/27 13:02:42;;;;;;;;;;;22.40;67.00;;;;;;5109530;27;19923;-73
2023/09/27 13:05:15;;;;;;;;;;;22.30;66.70;;;;;;5109103;27;19931;-72
2023/09/27 13:07:48;;;;;;;;;;;22.30;68.00;;;;;;5093101;27;20289;-72
2023/09/27 13:10:21;;;;;;;;;;;22.30;68.10;;;;;;5088728;28;19931;-72
2023/09/27 13:12:54;;;;;;;;;;;22.20;68.00;;;;;;5088412;28;20344;-71
2023/09/27 13:15:28;;;;;;;;;;;22.20;68.00;;;;;;5088802;28;19927;-73
2023/09/27 13:18:02;;;;;;;;;;;22.10;68.20;;;;;;5088508;28;19974;-71
2023/09/27 13:20:35;;;;;;;;;;;22.10;68.50;;;;;;5103552;27;20363;-73
2023/09/27 13:23:08;;;;;;;;;;;22.10;69.20;;;;;;5105335;27;19931;-72
2023/09/27 13:25:41;;;;;;;;;;;22.10;69.00;;;;;;5088600;27;19928;-74
2023/09/27 13:28:14;;;;;;;;;;;22.10;69.20;;;;;;5088437;28;19967;-74
2023/09/27 13:30:48;;;;;;;;;;;22.10;69.20;;;;;;5095714;28;20015;-74
2023/09/27 13:33:22;;;;;;;;;;;22.10;69.40;;;;;;5088303;28;19924;-73
2023/09/27 13:35:57;;;;;;;;;;;22.10;69.30;;;;;;5087909;28;19924;-73
2023/09/27 13:38:31;;;;;;;;;;;22.00;69.00;;;;;;5088987;28;19924;-73
2023/09/27 13:41:04;;;;;;;;;;;22.00;69.60;;;;;;5088086;28;20398;-72
2023/09/27 13:43:37;;;;;;;;;;;22.00;69.30;;;;;;5106931;27;20022;-73
2023/09/27 13:46:13;;;;;;;;;;;22.00;68.90;;;;;;5112263;27;20390;-74
2023/09/27 13:48:46;;;;;;;;;;;22.00;70.30;;;;;;5112625;27;19924;-73
2023/09/27 13:51:19;;;;;;;;;;;21.90;69.60;;;;;;5094876;27;19924;-73
2023/09/27 13:53:52;;;;;;;;;;;21.90;70.30;;;;;;5100674;27;20365;-70
2023/09/27 13:56:19;;;;;;;;;;;22.00;70.40;;;;;;5113189;27;19923;-73
2023/09/27 13:58:52;;;;;;;;;;;21.90;70.30;;;;;;5111924;27;20004;-68
2023/09/27 14:01:26;;;;;;;;;;;21.90;70.60;;;;;;5111034;27;19927;-72
2023/09/27 14:04:01;;;;;;;;;;;21.80;70.20;;;;;;5112744;27;20012;-73
2023/09/27 14:06:34;;;;;;;;;;;21.80;70.70;;;;;;5113270;27;20014;-73
2023/09/27 14:09:07;;;;;;;;;;;21.80;71.20;;;;;;5111863;27;20027;-73
2023/09/27 14:11:34;;;;;;;;;;;21.80;71.20;;;;;;5105935;27;20461;-72
2023/09/27 14:14:07;;;;;;;;;;;21.80;71.60;;;;;;5091727;27;19946;-70
2023/09/27 14:16:41;;;;;;;;;;;21.90;71.70;;;;;;5089835;28;19932;-70
2023/09/27 14:19:16;;;;;;;;;;;21.90;72.10;;;;;;5091374;28;20278;-71
2023/09/27 14:21:51;;;;;;;;;;;21.90;71.10;;;;;;5089140;28;19931;-70
2023/09/27 14:24:24;;;;;;;;;;;21.80;71.20;;;;;;5091747;28;19931;-70
2023/09/27 14:26:57;;;;;;;;;;;21.80;71.40;;;;;;5090851;28;19930;-71
2023/09/27 14:29:32;;;;;;;;;;;21.80;71.80;;;;;;5092030;28;19924;-69
2023/09/27 14:32:08;;;;;;;;;;;21.80;72.60;;;;;;5090582;28;19928;-71
2023/09/27 14:34:41;;;;;;;;;;;21.80;72.40;;;;;;5091370;28;19932;-70
2023/09/27 14:37:14;;;;;;;;;;;21.90;71.90;;;;;;5092644;28;20294;-70
2023/09/27 14:39:48;;;;;;;;;;;21.80;71.80;;;;;;5102937;27;20298;-70
2023/09/27 14:42:47;;;;;;;;;;;;;;;;;;;;;
2023/09/27 14:45:29;;;;;;;;;;;21.80;72.40;;;;;;5088644;28;19963;-72
2023/09/27 14:48:05;;;;;;;;;;;21.80;72.50;;;;;;5103211;27;20274;-70
2023/09/27 14:50:55;;;;;;;;;;;21.90;72.10;;;;;;5108388;27;19933;-70
2023/09/27 14:53:40;;;;;;;;;;;21.80;72.10;;;;;;5090067;28;20025;-72
2023/09/27 14:56:31;;;;;;;;;;;21.80;72.30;;;;;;5090079;28;19982;-70
2023/09/27 14:59:04;;;;;;;;;;;21.80;72.50;;;;;;5090717;28;19924;-70
2023/09/27 15:01:38;;;;;;;;;;;21.80;72.10;;;;;;5089682;28;19973;-70